GBNOM EGCC-EGNE
Flight info
| Callsign | GBNOM |
|---|---|
| Flight time | N/A |
| Altitude | 3000 |
| Route | EGCC/EGNE |
| Aircraft | PA28/L-VGDW/C |
Departure
| Time | 2026-05-04 18:19 |
|---|---|
| Airport | Manchester Airport (EGCC) |
Arrival
| Time | N/A |
|---|---|
| Airport | Retford Gamston Airport (EGNE) |
| Time | Latitude | Longitude | Altitude | Speed | Heading |
|---|---|---|---|---|---|
| 2026-05-04 18:04 | 53.36565 | -2.28920 | 233 ft | 0 kts | 225° |
| 2026-05-04 18:11 | 53.36566 | -2.28934 | 233 ft | 6 kts | 318° |
| 2026-05-04 18:11 | 53.36615 | -2.28867 | 233 ft | 13 kts | 97° |
| 2026-05-04 18:12 | 53.36570 | -2.28728 | 234 ft | 15 kts | 100° |
| 2026-05-04 18:12 | 53.36508 | -2.28591 | 234 ft | 16 kts | 136° |
| 2026-05-04 18:12 | 53.36428 | -2.28459 | 234 ft | 16 kts | 136° |
| 2026-05-04 18:12 | 53.36350 | -2.28325 | 235 ft | 16 kts | 138° |
| 2026-05-04 18:13 | 53.36272 | -2.28195 | 235 ft | 17 kts | 135° |
| 2026-05-04 18:13 | 53.36187 | -2.28051 | 235 ft | 17 kts | 136° |
| 2026-05-04 18:13 | 53.36092 | -2.27888 | 235 ft | 0 kts | 134° |
| 2026-05-04 18:15 | 53.36087 | -2.27761 | 236 ft | 17 kts | 74° |
| 2026-05-04 18:15 | 53.35940 | -2.27639 | 236 ft | 15 kts | 188° |
| 2026-05-04 18:15 | 53.35872 | -2.27648 | 235 ft | 0 kts | 184° |
| 2026-05-04 18:16 | 53.35869 | -2.27648 | 235 ft | 4 kts | 185° |
| 2026-05-04 18:16 | 53.35811 | -2.27659 | 235 ft | 16 kts | 186° |
| 2026-05-04 18:16 | 53.35682 | -2.27604 | 234 ft | 19 kts | 144° |
| 2026-05-04 18:17 | 53.35568 | -2.27452 | 234 ft | 0 kts | 140° |
| 2026-05-04 18:17 | 53.35499 | -2.27357 | 236 ft | 0 kts | 139° |
| 2026-05-04 18:18 | 53.35459 | -2.27328 | 236 ft | 21 kts | 199° |
| 2026-05-04 18:18 | 53.35286 | -2.27680 | 232 ft | 64 kts | 231° |
| 2026-05-04 18:18 | 53.34936 | -2.28405 | 298 ft | 90 kts | 231° |
| 2026-05-04 18:18 | 53.34545 | -2.29196 | 564 ft | 85 kts | 233° |
| 2026-05-04 18:19 | 53.33717 | -2.30863 | 944 ft | 98 kts | 234° |
| 2026-05-04 18:19 | 53.33298 | -2.31787 | 1169 ft | 100 kts | 238° |
| 2026-05-04 18:19 | 53.32877 | -2.32766 | 1286 ft | 107 kts | 239° |
| 2026-05-04 18:20 | 53.32406 | -2.33752 | 1426 ft | 110 kts | 234° |
| 2026-05-04 18:20 | 53.31880 | -2.34643 | 1635 ft | 108 kts | 227° |
| 2026-05-04 18:20 | 53.31265 | -2.35320 | 1866 ft | 106 kts | 211° |
| 2026-05-04 18:20 | 53.30499 | -2.35665 | 1728 ft | 133 kts | 194° |
| 2026-05-04 18:21 | 53.29627 | -2.35791 | 1962 ft | 120 kts | 185° |
| 2026-05-04 18:21 | 53.28777 | -2.35702 | 1814 ft | 137 kts | 170° |
| 2026-05-04 18:21 | 53.27919 | -2.34936 | 1662 ft | 145 kts | 140° |
| 2026-05-04 18:21 | 53.27231 | -2.33693 | 1610 ft | 140 kts | 131° |
| 2026-05-04 18:22 | 53.26581 | -2.32564 | 1725 ft | 132 kts | 133° |